Terminal Aerodrome Forecast
Issued by NWS

Home | Current Version | Previous Version | Text Only | Print | Product List | Glossary On
Versions: 1 2 3 4 5 6 7 8 9 10 11 12 13
000
FTUS44 KOUN 241138 CCA
TAFHBR
TAF COR
KHBR 241138Z 2412/2512 16008KT 6SM BR SCT250
      TEMPO 2412/2414 3SM BR
     FM241500 20011KT P6SM SCT250
     FM250000 16006KT P6SM SCT250=

USA.gov is the U.S. government's official web portal to all federal, state and local government web resources and services.